sensor_id;sensor_type;location;lat;lon;timestamp;P1;durP1;ratioP1;P2;durP2;ratioP2
40290;SDS011;26000;48.304;13.626;2023-02-20T00:01:24;7.68;;;2.40;;
40290;SDS011;26000;48.304;13.626;2023-02-20T00:03:51;4.60;;;2.50;;
40290;SDS011;26000;48.304;13.626;2023-02-20T00:06:16;4.18;;;2.42;;
40290;SDS011;26000;48.304;13.626;2023-02-20T00:08:42;4.63;;;2.40;;
40290;SDS011;26000;48.304;13.626;2023-02-20T00:11:07;3.35;;;2.25;;
40290;SDS011;26000;48.304;13.626;2023-02-20T00:13:33;5.32;;;2.65;;
40290;SDS011;26000;48.304;13.626;2023-02-20T00:15:59;3.47;;;2.40;;
40290;SDS011;26000;48.304;13.626;2023-02-20T00:18:24;3.42;;;2.20;;
40290;SDS011;26000;48.304;13.626;2023-02-20T00:20:50;3.83;;;2.13;;
40290;SDS011;26000;48.304;13.626;2023-02-20T00:23:16;2.85;;;2.10;;
40290;SDS011;26000;48.304;13.626;2023-02-20T00:25:42;3.85;;;2.75;;
40290;SDS011;26000;48.304;13.626;2023-02-20T00:28:07;3.65;;;2.45;;
40290;SDS011;26000;48.304;13.626;2023-02-20T00:30:33;4.03;;;2.33;;
40290;SDS011;26000;48.304;13.626;2023-02-20T00:32:58;3.72;;;2.20;;
40290;SDS011;26000;48.304;13.626;2023-02-20T00:35:24;3.33;;;2.40;;
40290;SDS011;26000;48.304;13.626;2023-02-20T00:37:51;5.15;;;2.40;;
40290;SDS011;26000;48.304;13.626;2023-02-20T00:40:18;4.80;;;2.38;;
40290;SDS011;26000;48.304;13.626;2023-02-20T00:42:45;4.90;;;2.45;;
40290;SDS011;26000;48.304;13.626;2023-02-20T00:45:11;3.13;;;2.33;;
40290;SDS011;26000;48.304;13.626;2023-02-20T00:47:37;2.85;;;2.33;;
40290;SDS011;26000;48.304;13.626;2023-02-20T00:50:04;5.40;;;2.58;;
40290;SDS011;26000;48.304;13.626;2023-02-20T00:52:30;4.05;;;2.45;;
40290;SDS011;26000;48.304;13.626;2023-02-20T00:54:56;4.22;;;2.58;;
40290;SDS011;26000;48.304;13.626;2023-02-20T00:57:21;4.10;;;2.38;;
40290;SDS011;26000;48.304;13.626;2023-02-20T00:59:47;4.60;;;2.60;;
40290;SDS011;26000;48.304;13.626;2023-02-20T01:02:12;4.38;;;2.30;;
40290;SDS011;26000;48.304;13.626;2023-02-20T01:04:38;3.60;;;2.35;;
40290;SDS011;26000;48.304;13.626;2023-02-20T01:07:04;6.00;;;2.65;;
40290;SDS011;26000;48.304;13.626;2023-02-20T01:09:29;5.10;;;2.72;;
40290;SDS011;26000;48.304;13.626;2023-02-20T01:11:55;5.80;;;2.42;;
40290;SDS011;26000;48.304;13.626;2023-02-20T01:14:20;5.53;;;3.00;;
40290;SDS011;26000;48.304;13.626;2023-02-20T01:16:47;4.78;;;2.85;;
40290;SDS011;26000;48.304;13.626;2023-02-20T01:19:15;8.00;;;2.83;;
40290;SDS011;26000;48.304;13.626;2023-02-20T01:21:42;6.20;;;3.08;;
40290;SDS011;26000;48.304;13.626;2023-02-20T01:24:07;9.40;;;2.55;;
40290;SDS011;26000;48.304;13.626;2023-02-20T01:26:33;4.18;;;2.78;;
40290;SDS011;26000;48.304;13.626;2023-02-20T01:29:00;5.82;;;2.80;;
40290;SDS011;26000;48.304;13.626;2023-02-20T01:31:27;4.32;;;2.72;;
40290;SDS011;26000;48.304;13.626;2023-02-20T01:33:52;6.10;;;2.60;;
40290;SDS011;26000;48.304;13.626;2023-02-20T01:36:18;4.32;;;2.70;;
40290;SDS011;26000;48.304;13.626;2023-02-20T01:38:44;4.45;;;2.63;;
40290;SDS011;26000;48.304;13.626;2023-02-20T01:41:10;5.00;;;2.55;;
40290;SDS011;26000;48.304;13.626;2023-02-20T01:43:36;5.20;;;2.85;;
40290;SDS011;26000;48.304;13.626;2023-02-20T01:49:13;5.47;;;2.95;;
40290;SDS011;26000;48.304;13.626;2023-02-20T01:51:43;6.68;;;2.72;;
40290;SDS011;26000;48.304;13.626;2023-02-20T01:54:14;6.10;;;2.80;;
40290;SDS011;26000;48.304;13.626;2023-02-20T01:56:42;4.88;;;2.88;;
40290;SDS011;26000;48.304;13.626;2023-02-20T01:59:10;4.82;;;2.70;;
40290;SDS011;26000;48.304;13.626;2023-02-20T02:01:36;3.00;;;2.63;;
40290;SDS011;26000;48.304;13.626;2023-02-20T02:04:03;5.07;;;2.97;;
40290;SDS011;26000;48.304;13.626;2023-02-20T02:06:33;4.68;;;2.83;;
40290;SDS011;26000;48.304;13.626;2023-02-20T02:09:04;5.05;;;3.15;;
40290;SDS011;26000;48.304;13.626;2023-02-20T02:11:35;5.47;;;3.03;;
40290;SDS011;26000;48.304;13.626;2023-02-20T02:14:01;5.15;;;3.10;;
40290;SDS011;26000;48.304;13.626;2023-02-20T02:42:47;3.83;;;2.80;;
40290;SDS011;26000;48.304;13.626;2023-02-20T02:44:54;4.88;;;2.88;;
40290;SDS011;26000;48.304;13.626;2023-02-20T02:50:03;5.85;;;3.47;;
40290;SDS011;26000;48.304;13.626;2023-02-20T02:52:33;6.35;;;3.10;;
40290;SDS011;26000;48.304;13.626;2023-02-20T02:55:10;6.50;;;3.05;;
40290;SDS011;26000;48.304;13.626;2023-02-20T02:57:36;5.43;;;2.95;;
40290;SDS011;26000;48.304;13.626;2023-02-20T03:00:07;5.70;;;3.10;;
40290;SDS011;26000;48.304;13.626;2023-02-20T03:02:39;4.78;;;3.05;;
40290;SDS011;26000;48.304;13.626;2023-02-20T03:05:08;7.90;;;3.30;;
40290;SDS011;26000;48.304;13.626;2023-02-20T03:07:37;4.70;;;3.10;;
40290;SDS011;26000;48.304;13.626;2023-02-20T03:10:08;6.95;;;3.22;;
40290;SDS011;26000;48.304;13.626;2023-02-20T03:12:42;5.03;;;2.97;;
40290;SDS011;26000;48.304;13.626;2023-02-20T03:15:15;5.80;;;3.30;;
40290;SDS011;26000;48.304;13.626;2023-02-20T03:20:48;6.82;;;3.22;;
40290;SDS011;26000;48.304;13.626;2023-02-20T03:23:20;5.13;;;2.92;;
40290;SDS011;26000;48.304;13.626;2023-02-20T03:25:54;7.10;;;3.03;;
40290;SDS011;26000;48.304;13.626;2023-02-20T03:30:57;4.75;;;2.92;;
40290;SDS011;26000;48.304;13.626;2023-02-20T03:33:41;6.07;;;3.20;;
40290;SDS011;26000;48.304;13.626;2023-02-20T03:36:49;9.18;;;3.45;;
40290;SDS011;26000;48.304;13.626;2023-02-20T03:39:41;5.07;;;3.33;;
40290;SDS011;26000;48.304;13.626;2023-02-20T03:42:31;5.30;;;3.17;;
40290;SDS011;26000;48.304;13.626;2023-02-20T03:45:19;4.93;;;3.13;;
40290;SDS011;26000;48.304;13.626;2023-02-20T03:47:47;5.07;;;3.28;;
40290;SDS011;26000;48.304;13.626;2023-02-20T03:50:16;5.70;;;2.80;;
40290;SDS011;26000;48.304;13.626;2023-02-20T03:52:43;5.35;;;3.50;;
40290;SDS011;26000;48.304;13.626;2023-02-20T03:55:08;5.60;;;3.33;;
40290;SDS011;26000;48.304;13.626;2023-02-20T03:57:37;7.45;;;3.03;;
40290;SDS011;26000;48.304;13.626;2023-02-20T04:00:13;6.60;;;3.13;;
40290;SDS011;26000;48.304;13.626;2023-02-20T04:02:43;6.32;;;3.00;;
40290;SDS011;26000;48.304;13.626;2023-02-20T04:05:12;6.88;;;3.08;;
40290;SDS011;26000;48.304;13.626;2023-02-20T04:07:50;8.02;;;3.30;;
40290;SDS011;26000;48.304;13.626;2023-02-20T04:10:24;6.13;;;3.20;;
40290;SDS011;26000;48.304;13.626;2023-02-20T04:12:58;5.28;;;3.15;;
40290;SDS011;26000;48.304;13.626;2023-02-20T04:15:26;5.45;;;3.08;;
40290;SDS011;26000;48.304;13.626;2023-02-20T04:17:54;7.28;;;2.83;;
40290;SDS011;26000;48.304;13.626;2023-02-20T04:20:29;7.30;;;3.33;;
40290;SDS011;26000;48.304;13.626;2023-02-20T04:22:56;5.53;;;3.13;;
40290;SDS011;26000;48.304;13.626;2023-02-20T04:25:36;6.20;;;2.78;;
40290;SDS011;26000;48.304;13.626;2023-02-20T04:28:19;6.72;;;3.28;;
40290;SDS011;26000;48.304;13.626;2023-02-20T04:30:46;4.10;;;2.80;;
40290;SDS011;26000;48.304;13.626;2023-02-20T04:33:12;5.47;;;2.65;;
40290;SDS011;26000;48.304;13.626;2023-02-20T04:35:39;7.10;;;2.90;;
40290;SDS011;26000;48.304;13.626;2023-02-20T04:38:05;4.47;;;2.85;;
40290;SDS011;26000;48.304;13.626;2023-02-20T04:40:31;4.13;;;3.00;;
40290;SDS011;26000;48.304;13.626;2023-02-20T04:42:57;4.40;;;2.65;;
40290;SDS011;26000;48.304;13.626;2023-02-20T04:45:22;8.82;;;3.10;;
40290;SDS011;26000;48.304;13.626;2023-02-20T04:47:48;8.10;;;2.88;;
40290;SDS011;26000;48.304;13.626;2023-02-20T04:50:18;5.07;;;2.85;;
40290;SDS011;26000;48.304;13.626;2023-02-20T04:52:47;6.07;;;2.88;;
40290;SDS011;26000;48.304;13.626;2023-02-20T04:55:12;6.90;;;3.17;;
40290;SDS011;26000;48.304;13.626;2023-02-20T04:57:38;4.90;;;2.70;;
40290;SDS011;26000;48.304;13.626;2023-02-20T05:00:04;5.28;;;2.78;;
40290;SDS011;26000;48.304;13.626;2023-02-20T05:02:32;4.93;;;2.55;;
40290;SDS011;26000;48.304;13.626;2023-02-20T05:04:58;5.88;;;2.88;;
40290;SDS011;26000;48.304;13.626;2023-02-20T05:07:24;5.28;;;3.13;;
40290;SDS011;26000;48.304;13.626;2023-02-20T05:09:49;6.18;;;2.90;;
40290;SDS011;26000;48.304;13.626;2023-02-20T05:12:15;7.63;;;2.80;;
40290;SDS011;26000;48.304;13.626;2023-02-20T05:14:40;5.18;;;2.80;;
40290;SDS011;26000;48.304;13.626;2023-02-20T05:17:06;6.07;;;2.80;;
40290;SDS011;26000;48.304;13.626;2023-02-20T05:19:31;8.23;;;3.20;;
40290;SDS011;26000;48.304;13.626;2023-02-20T05:21:57;3.53;;;2.83;;
40290;SDS011;26000;48.304;13.626;2023-02-20T05:24:42;6.50;;;3.20;;
40290;SDS011;26000;48.304;13.626;2023-02-20T05:27:08;5.05;;;2.95;;
40290;SDS011;26000;48.304;13.626;2023-02-20T05:29:34;3.90;;;2.83;;
40290;SDS011;26000;48.304;13.626;2023-02-20T05:31:59;4.38;;;2.70;;
40290;SDS011;26000;48.304;13.626;2023-02-20T05:34:26;6.57;;;3.17;;
40290;SDS011;26000;48.304;13.626;2023-02-20T05:36:52;5.35;;;2.90;;
40290;SDS011;26000;48.304;13.626;2023-02-20T05:39:18;5.93;;;2.90;;
40290;SDS011;26000;48.304;13.626;2023-02-20T05:41:43;6.70;;;3.25;;
40290;SDS011;26000;48.304;13.626;2023-02-20T05:44:09;5.60;;;3.08;;
40290;SDS011;26000;48.304;13.626;2023-02-20T05:46:39;5.13;;;3.45;;
40290;SDS011;26000;48.304;13.626;2023-02-20T05:49:05;8.27;;;3.17;;
40290;SDS011;26000;48.304;13.626;2023-02-20T05:51:31;5.88;;;3.08;;
40290;SDS011;26000;48.304;13.626;2023-02-20T05:53:57;4.68;;;3.47;;
40290;SDS011;26000;48.304;13.626;2023-02-20T05:56:23;6.50;;;3.10;;
40290;SDS011;26000;48.304;13.626;2023-02-20T05:58:49;6.32;;;3.13;;
40290;SDS011;26000;48.304;13.626;2023-02-20T06:01:19;4.43;;;2.92;;
40290;SDS011;26000;48.304;13.626;2023-02-20T06:03:49;6.18;;;3.28;;
40290;SDS011;26000;48.304;13.626;2023-02-20T06:06:15;6.25;;;3.17;;
40290;SDS011;26000;48.304;13.626;2023-02-20T06:08:41;5.63;;;2.88;;
40290;SDS011;26000;48.304;13.626;2023-02-20T06:11:06;7.07;;;3.55;;
40290;SDS011;26000;48.304;13.626;2023-02-20T06:13:33;7.97;;;5.53;;
40290;SDS011;26000;48.304;13.626;2023-02-20T06:15:59;7.80;;;5.20;;
40290;SDS011;26000;48.304;13.626;2023-02-20T06:18:24;5.03;;;4.22;;
40290;SDS011;26000;48.304;13.626;2023-02-20T06:20:50;7.43;;;3.58;;
40290;SDS011;26000;48.304;13.626;2023-02-20T06:23:15;9.45;;;4.35;;
40290;SDS011;26000;48.304;13.626;2023-02-20T06:25:41;6.38;;;3.20;;
40290;SDS011;26000;48.304;13.626;2023-02-20T06:28:06;7.82;;;3.72;;
40290;SDS011;26000;48.304;13.626;2023-02-20T06:30:32;10.23;;;3.83;;
40290;SDS011;26000;48.304;13.626;2023-02-20T06:32:58;9.80;;;6.70;;
40290;SDS011;26000;48.304;13.626;2023-02-20T06:35:23;8.95;;;5.40;;
40290;SDS011;26000;48.304;13.626;2023-02-20T06:37:49;5.03;;;3.42;;
40290;SDS011;26000;48.304;13.626;2023-02-20T06:40:14;5.95;;;4.47;;
40290;SDS011;26000;48.304;13.626;2023-02-20T06:42:40;9.20;;;3.75;;
40290;SDS011;26000;48.304;13.626;2023-02-20T06:45:06;5.53;;;3.53;;
40290;SDS011;26000;48.304;13.626;2023-02-20T06:47:31;7.03;;;3.60;;
40290;SDS011;26000;48.304;13.626;2023-02-20T06:49:57;5.88;;;3.63;;
40290;SDS011;26000;48.304;13.626;2023-02-20T06:52:22;5.35;;;3.60;;
40290;SDS011;26000;48.304;13.626;2023-02-20T06:54:48;7.30;;;4.10;;
40290;SDS011;26000;48.304;13.626;2023-02-20T06:57:15;9.25;;;3.38;;
40290;SDS011;26000;48.304;13.626;2023-02-20T06:59:43;6.82;;;4.10;;
40290;SDS011;26000;48.304;13.626;2023-02-20T07:02:12;7.82;;;5.30;;
40290;SDS011;26000;48.304;13.626;2023-02-20T07:04:39;8.13;;;4.53;;
40290;SDS011;26000;48.304;13.626;2023-02-20T07:07:04;10.70;;;4.20;;
40290;SDS011;26000;48.304;13.626;2023-02-20T07:09:30;13.85;;;4.07;;
40290;SDS011;26000;48.304;13.626;2023-02-20T07:11:56;7.50;;;4.65;;
40290;SDS011;26000;48.304;13.626;2023-02-20T07:14:22;8.48;;;5.72;;
40290;SDS011;26000;48.304;13.626;2023-02-20T07:16:48;7.57;;;4.28;;
40290;SDS011;26000;48.304;13.626;2023-02-20T07:19:13;9.38;;;5.20;;
40290;SDS011;26000;48.304;13.626;2023-02-20T07:21:39;5.18;;;4.10;;
40290;SDS011;26000;48.304;13.626;2023-02-20T07:24:05;7.10;;;4.53;;
40290;SDS011;26000;48.304;13.626;2023-02-20T07:26:31;7.80;;;4.45;;
40290;SDS011;26000;48.304;13.626;2023-02-20T07:28:57;7.78;;;4.00;;
40290;SDS011;26000;48.304;13.626;2023-02-20T07:31:24;6.40;;;4.00;;
40290;SDS011;26000;48.304;13.626;2023-02-20T07:33:50;7.40;;;4.00;;
40290;SDS011;26000;48.304;13.626;2023-02-20T07:36:16;6.60;;;3.60;;
40290;SDS011;26000;48.304;13.626;2023-02-20T07:38:42;5.55;;;3.42;;
40290;SDS011;26000;48.304;13.626;2023-02-20T07:41:16;10.43;;;5.22;;
40290;SDS011;26000;48.304;13.626;2023-02-20T07:43:42;9.73;;;5.35;;
40290;SDS011;26000;48.304;13.626;2023-02-20T07:46:07;8.82;;;5.10;;
40290;SDS011;26000;48.304;13.626;2023-02-20T07:48:33;6.03;;;4.05;;
40290;SDS011;26000;48.304;13.626;2023-02-20T07:50:59;6.75;;;4.00;;
40290;SDS011;26000;48.304;13.626;2023-02-20T07:53:24;8.90;;;4.57;;
40290;SDS011;26000;48.304;13.626;2023-02-20T07:55:50;11.15;;;4.20;;
40290;SDS011;26000;48.304;13.626;2023-02-20T07:58:16;5.53;;;3.40;;
40290;SDS011;26000;48.304;13.626;2023-02-20T08:00:41;8.80;;;4.20;;
40290;SDS011;26000;48.304;13.626;2023-02-20T08:03:07;6.90;;;3.75;;
40290;SDS011;26000;48.304;13.626;2023-02-20T08:05:32;11.60;;;4.40;;
40290;SDS011;26000;48.304;13.626;2023-02-20T08:07:58;8.13;;;3.90;;
40290;SDS011;26000;48.304;13.626;2023-02-20T08:10:24;6.20;;;3.60;;
40290;SDS011;26000;48.304;13.626;2023-02-20T08:12:52;7.63;;;4.10;;
40290;SDS011;26000;48.304;13.626;2023-02-20T08:15:19;7.60;;;3.80;;
40290;SDS011;26000;48.304;13.626;2023-02-20T08:17:46;8.35;;;3.80;;
40290;SDS011;26000;48.304;13.626;2023-02-20T08:20:12;9.35;;;4.03;;
40290;SDS011;26000;48.304;13.626;2023-02-20T08:22:38;11.07;;;4.03;;
40290;SDS011;26000;48.304;13.626;2023-02-20T08:25:04;4.68;;;3.85;;
40290;SDS011;26000;48.304;13.626;2023-02-20T08:27:30;8.07;;;4.22;;
40290;SDS011;26000;48.304;13.626;2023-02-20T08:29:56;8.43;;;5.05;;
40290;SDS011;26000;48.304;13.626;2023-02-20T08:32:22;8.35;;;4.78;;
40290;SDS011;26000;48.304;13.626;2023-02-20T08:34:48;12.75;;;9.05;;
40290;SDS011;26000;48.304;13.626;2023-02-20T08:37:14;21.58;;;18.40;;
40290;SDS011;26000;48.304;13.626;2023-02-20T08:39:40;59.20;;;44.38;;
40290;SDS011;26000;48.304;13.626;2023-02-20T08:42:05;24.67;;;18.30;;
40290;SDS011;26000;48.304;13.626;2023-02-20T08:44:31;11.07;;;5.03;;
40290;SDS011;26000;48.304;13.626;2023-02-20T08:46:57;7.32;;;5.70;;
40290;SDS011;26000;48.304;13.626;2023-02-20T08:49:23;10.93;;;4.57;;
40290;SDS011;26000;48.304;13.626;2023-02-20T08:51:51;8.82;;;4.45;;
40290;SDS011;26000;48.304;13.626;2023-02-20T08:54:19;7.40;;;4.07;;
40290;SDS011;26000;48.304;13.626;2023-02-20T08:56:45;5.97;;;4.28;;
40290;SDS011;26000;48.304;13.626;2023-02-20T08:59:10;6.13;;;3.85;;
40290;SDS011;26000;48.304;13.626;2023-02-20T09:01:39;6.15;;;4.18;;
40290;SDS011;26000;48.304;13.626;2023-02-20T09:04:06;8.38;;;5.60;;
40290;SDS011;26000;48.304;13.626;2023-02-20T09:06:32;8.88;;;4.90;;
40290;SDS011;26000;48.304;13.626;2023-02-20T09:08:58;8.32;;;4.97;;
40290;SDS011;26000;48.304;13.626;2023-02-20T09:11:24;8.13;;;5.35;;
40290;SDS011;26000;48.304;13.626;2023-02-20T09:13:50;7.43;;;4.10;;
40290;SDS011;26000;48.304;13.626;2023-02-20T09:16:19;5.55;;;3.92;;
40290;SDS011;26000;48.304;13.626;2023-02-20T09:18:45;9.45;;;3.88;;
40290;SDS011;26000;48.304;13.626;2023-02-20T09:21:12;7.70;;;4.20;;
40290;SDS011;26000;48.304;13.626;2023-02-20T09:23:39;7.18;;;4.00;;
40290;SDS011;26000;48.304;13.626;2023-02-20T09:26:05;13.70;;;5.03;;
40290;SDS011;26000;48.304;13.626;2023-02-20T09:28:30;8.57;;;4.70;;
40290;SDS011;26000;48.304;13.626;2023-02-20T09:30:56;6.78;;;4.70;;
40290;SDS011;26000;48.304;13.626;2023-02-20T09:33:24;8.77;;;4.72;;
40290;SDS011;26000;48.304;13.626;2023-02-20T09:35:51;7.95;;;4.35;;
40290;SDS011;26000;48.304;13.626;2023-02-20T09:38:19;7.35;;;4.18;;
40290;SDS011;26000;48.304;13.626;2023-02-20T09:40:46;9.20;;;6.05;;
40290;SDS011;26000;48.304;13.626;2023-02-20T09:46:19;12.98;;;8.15;;
40290;SDS011;26000;48.304;13.626;2023-02-20T09:51:20;11.35;;;6.72;;
40290;SDS011;26000;48.304;13.626;2023-02-20T09:53:55;9.23;;;5.40;;
40290;SDS011;26000;48.304;13.626;2023-02-20T09:56:26;10.68;;;6.07;;
40290;SDS011;26000;48.304;13.626;2023-02-20T09:59:03;8.60;;;5.13;;
40290;SDS011;26000;48.304;13.626;2023-02-20T10:01:43;6.93;;;4.68;;
40290;SDS011;26000;48.304;13.626;2023-02-20T10:04:16;8.90;;;4.63;;
40290;SDS011;26000;48.304;13.626;2023-02-20T10:06:46;7.63;;;4.70;;
40290;SDS011;26000;48.304;13.626;2023-02-20T10:09:14;7.70;;;4.38;;
40290;SDS011;26000;48.304;13.626;2023-02-20T10:14:22;7.30;;;4.63;;
40290;SDS011;26000;48.304;13.626;2023-02-20T10:17:03;7.22;;;4.25;;
40290;SDS011;26000;48.304;13.626;2023-02-20T10:22:32;8.15;;;4.47;;
40290;SDS011;26000;48.304;13.626;2023-02-20T10:30:24;5.45;;;3.97;;
40290;SDS011;26000;48.304;13.626;2023-02-20T10:35:30;10.57;;;4.65;;
40290;SDS011;26000;48.304;13.626;2023-02-20T10:38:11;9.35;;;4.60;;
40290;SDS011;26000;48.304;13.626;2023-02-20T10:40:41;9.13;;;4.10;;
40290;SDS011;26000;48.304;13.626;2023-02-20T10:43:22;9.07;;;5.13;;
40290;SDS011;26000;48.304;13.626;2023-02-20T10:46:21;6.93;;;4.20;;
40290;SDS011;26000;48.304;13.626;2023-02-20T10:48:50;7.65;;;4.18;;
40290;SDS011;26000;48.304;13.626;2023-02-20T10:51:26;11.27;;;5.97;;
40290;SDS011;26000;48.304;13.626;2023-02-20T10:54:21;7.30;;;4.72;;
40290;SDS011;26000;48.304;13.626;2023-02-20T10:56:57;7.20;;;4.75;;
40290;SDS011;26000;48.304;13.626;2023-02-20T11:01:57;8.55;;;3.50;;
40290;SDS011;26000;48.304;13.626;2023-02-20T11:04:29;9.10;;;4.13;;
40290;SDS011;26000;48.304;13.626;2023-02-20T11:07:00;7.70;;;3.78;;
40290;SDS011;26000;48.304;13.626;2023-02-20T11:09:31;6.43;;;4.05;;
40290;SDS011;26000;48.304;13.626;2023-02-20T11:11:56;6.13;;;4.10;;
40290;SDS011;26000;48.304;13.626;2023-02-20T11:14:29;5.68;;;3.10;;
40290;SDS011;26000;48.304;13.626;2023-02-20T11:17:06;8.20;;;3.72;;
40290;SDS011;26000;48.304;13.626;2023-02-20T11:22:09;7.72;;;3.58;;
40290;SDS011;26000;48.304;13.626;2023-02-20T11:24:40;5.65;;;3.47;;
40290;SDS011;26000;48.304;13.626;2023-02-20T11:27:10;5.18;;;3.78;;
40290;SDS011;26000;48.304;13.626;2023-02-20T11:29:50;6.70;;;3.60;;
40290;SDS011;26000;48.304;13.626;2023-02-20T11:32:33;9.63;;;4.75;;
40290;SDS011;26000;48.304;13.626;2023-02-20T11:37:37;8.27;;;3.42;;
40290;SDS011;26000;48.304;13.626;2023-02-20T11:40:03;5.15;;;3.08;;
40290;SDS011;26000;48.304;13.626;2023-02-20T11:42:31;4.93;;;3.00;;
40290;SDS011;26000;48.304;13.626;2023-02-20T11:45:10;5.57;;;3.72;;
40290;SDS011;26000;48.304;13.626;2023-02-20T11:47:36;5.57;;;2.83;;
40290;SDS011;26000;48.304;13.626;2023-02-20T11:50:16;6.13;;;2.97;;
40290;SDS011;26000;48.304;13.626;2023-02-20T11:52:59;3.80;;;3.13;;
40290;SDS011;26000;48.304;13.626;2023-02-20T11:55:29;4.63;;;3.10;;
40290;SDS011;26000;48.304;13.626;2023-02-20T11:57:55;6.72;;;3.75;;
40290;SDS011;26000;48.304;13.626;2023-02-20T12:00:25;5.25;;;3.20;;
40290;SDS011;26000;48.304;13.626;2023-02-20T12:03:13;6.63;;;3.35;;
40290;SDS011;26000;48.304;13.626;2023-02-20T12:05:46;5.63;;;3.38;;
40290;SDS011;26000;48.304;13.626;2023-02-20T12:10:53;6.90;;;3.33;;
40290;SDS011;26000;48.304;13.626;2023-02-20T12:13:25;5.57;;;3.67;;
40290;SDS011;26000;48.304;13.626;2023-02-20T12:15:57;7.10;;;3.53;;
40290;SDS011;26000;48.304;13.626;2023-02-20T12:18:49;5.13;;;3.25;;
40290;SDS011;26000;48.304;13.626;2023-02-20T12:21:26;6.03;;;3.40;;
40290;SDS011;26000;48.304;13.626;2023-02-20T12:24:01;6.53;;;3.65;;
40290;SDS011;26000;48.304;13.626;2023-02-20T12:26:41;10.40;;;4.30;;
40290;SDS011;26000;48.304;13.626;2023-02-20T12:35:02;8.30;;;3.85;;
40290;SDS011;26000;48.304;13.626;2023-02-20T12:37:57;6.15;;;3.72;;
40290;SDS011;26000;48.304;13.626;2023-02-20T12:43:36;6.88;;;3.85;;
40290;SDS011;26000;48.304;13.626;2023-02-20T12:46:16;7.68;;;3.70;;
40290;SDS011;26000;48.304;13.626;2023-02-20T12:56:30;9.27;;;5.13;;
40290;SDS011;26000;48.304;13.626;2023-02-20T12:59:37;7.55;;;5.50;;
40290;SDS011;26000;48.304;13.626;2023-02-20T13:04:52;8.85;;;4.88;;
40290;SDS011;26000;48.304;13.626;2023-02-20T13:07:29;8.25;;;4.80;;
40290;SDS011;26000;48.304;13.626;2023-02-20T13:10:11;11.50;;;4.65;;
40290;SDS011;26000;48.304;13.626;2023-02-20T13:12:41;10.73;;;4.20;;
40290;SDS011;26000;48.304;13.626;2023-02-20T13:18:03;6.60;;;4.00;;
40290;SDS011;26000;48.304;13.626;2023-02-20T13:20:55;8.15;;;5.05;;
40290;SDS011;26000;48.304;13.626;2023-02-20T13:23:27;5.85;;;4.10;;
40290;SDS011;26000;48.304;13.626;2023-02-20T13:25:57;9.02;;;6.22;;
40290;SDS011;26000;48.304;13.626;2023-02-20T13:33:37;10.23;;;6.85;;
40290;SDS011;26000;48.304;13.626;2023-02-20T13:36:05;7.53;;;5.28;;
40290;SDS011;26000;48.304;13.626;2023-02-20T13:38:39;8.15;;;5.13;;
40290;SDS011;26000;48.304;13.626;2023-02-20T13:41:05;5.70;;;3.85;;
40290;SDS011;26000;48.304;13.626;2023-02-20T13:43:35;8.27;;;4.55;;
40290;SDS011;26000;48.304;13.626;2023-02-20T13:53:49;5.93;;;4.22;;
40290;SDS011;26000;48.304;13.626;2023-02-20T13:56:25;8.57;;;4.57;;
40290;SDS011;26000;48.304;13.626;2023-02-20T13:58:56;7.32;;;5.10;;
40290;SDS011;26000;48.304;13.626;2023-02-20T14:01:23;8.82;;;5.00;;
40290;SDS011;26000;48.304;13.626;2023-02-20T14:04:02;7.50;;;4.55;;
40290;SDS011;26000;48.304;13.626;2023-02-20T14:06:29;11.02;;;5.50;;
40290;SDS011;26000;48.304;13.626;2023-02-20T14:09:08;7.07;;;4.22;;
40290;SDS011;26000;48.304;13.626;2023-02-20T14:11:36;6.30;;;3.83;;
40290;SDS011;26000;48.304;13.626;2023-02-20T14:14:10;6.95;;;4.90;;
40290;SDS011;26000;48.304;13.626;2023-02-20T14:19:57;5.70;;;4.40;;
40290;SDS011;26000;48.304;13.626;2023-02-20T14:22:29;8.88;;;5.10;;
40290;SDS011;26000;48.304;13.626;2023-02-20T14:25:00;6.88;;;5.05;;
40290;SDS011;26000;48.304;13.626;2023-02-20T14:27:39;8.23;;;4.72;;
40290;SDS011;26000;48.304;13.626;2023-02-20T14:30:12;7.25;;;4.00;;
40290;SDS011;26000;48.304;13.626;2023-02-20T14:32:51;7.55;;;4.45;;
40290;SDS011;26000;48.304;13.626;2023-02-20T14:40:44;5.45;;;3.95;;
40290;SDS011;26000;48.304;13.626;2023-02-20T14:45:40;6.70;;;3.92;;
40290;SDS011;26000;48.304;13.626;2023-02-20T14:48:20;7.45;;;3.97;;
40290;SDS011;26000;48.304;13.626;2023-02-20T14:50:47;8.48;;;3.70;;
40290;SDS011;26000;48.304;13.626;2023-02-20T14:53:26;8.23;;;4.93;;
40290;SDS011;26000;48.304;13.626;2023-02-20T14:55:51;7.93;;;4.93;;
40290;SDS011;26000;48.304;13.626;2023-02-20T14:58:18;6.13;;;4.47;;
40290;SDS011;26000;48.304;13.626;2023-02-20T15:00:47;6.90;;;4.60;;
40290;SDS011;26000;48.304;13.626;2023-02-20T15:03:23;8.70;;;4.45;;
40290;SDS011;26000;48.304;13.626;2023-02-20T15:05:51;6.93;;;3.40;;
40290;SDS011;26000;48.304;13.626;2023-02-20T15:10:43;5.95;;;3.33;;
40290;SDS011;26000;48.304;13.626;2023-02-20T15:13:13;6.28;;;3.45;;
40290;SDS011;26000;48.304;13.626;2023-02-20T15:15:43;5.50;;;3.10;;
40290;SDS011;26000;48.304;13.626;2023-02-20T15:18:15;5.85;;;2.90;;
40290;SDS011;26000;48.304;13.626;2023-02-20T15:20:55;5.40;;;2.65;;
40290;SDS011;26000;48.304;13.626;2023-02-20T15:23:23;7.22;;;3.38;;
40290;SDS011;26000;48.304;13.626;2023-02-20T15:29:18;5.05;;;2.90;;
40290;SDS011;26000;48.304;13.626;2023-02-20T15:31:52;6.03;;;2.70;;
40290;SDS011;26000;48.304;13.626;2023-02-20T15:34:54;7.88;;;3.72;;
40290;SDS011;26000;48.304;13.626;2023-02-20T15:37:22;28.33;;;15.52;;
40290;SDS011;26000;48.304;13.626;2023-02-20T15:39:50;23.00;;;12.07;;
40290;SDS011;26000;48.304;13.626;2023-02-20T15:42:17;26.35;;;14.60;;
40290;SDS011;26000;48.304;13.626;2023-02-20T15:44:45;17.52;;;10.18;;
40290;SDS011;26000;48.304;13.626;2023-02-20T15:47:10;11.27;;;7.38;;
40290;SDS011;26000;48.304;13.626;2023-02-20T15:49:36;16.33;;;8.88;;
40290;SDS011;26000;48.304;13.626;2023-02-20T15:52:02;19.35;;;11.88;;
40290;SDS011;26000;48.304;13.626;2023-02-20T15:54:29;10.70;;;6.95;;
40290;SDS011;26000;48.304;13.626;2023-02-20T15:56:54;11.93;;;8.88;;
40290;SDS011;26000;48.304;13.626;2023-02-20T15:59:20;7.60;;;5.38;;
40290;SDS011;26000;48.304;13.626;2023-02-20T16:01:45;5.55;;;4.50;;
40290;SDS011;26000;48.304;13.626;2023-02-20T16:04:14;5.40;;;3.80;;
40290;SDS011;26000;48.304;13.626;2023-02-20T16:06:40;7.53;;;4.72;;
40290;SDS011;26000;48.304;13.626;2023-02-20T16:09:07;9.20;;;6.32;;
40290;SDS011;26000;48.304;13.626;2023-02-20T16:11:43;9.05;;;5.68;;
40290;SDS011;26000;48.304;13.626;2023-02-20T16:14:14;6.00;;;4.75;;
40290;SDS011;26000;48.304;13.626;2023-02-20T16:16:41;7.28;;;4.72;;
40290;SDS011;26000;48.304;13.626;2023-02-20T16:19:10;6.50;;;4.65;;
40290;SDS011;26000;48.304;13.626;2023-02-20T16:21:42;7.40;;;4.60;;
40290;SDS011;26000;48.304;13.626;2023-02-20T16:24:09;8.05;;;5.88;;
40290;SDS011;26000;48.304;13.626;2023-02-20T16:26:35;9.43;;;5.97;;
40290;SDS011;26000;48.304;13.626;2023-02-20T16:29:03;11.05;;;6.70;;
40290;SDS011;26000;48.304;13.626;2023-02-20T16:32:08;12.52;;;6.22;;
40290;SDS011;26000;48.304;13.626;2023-02-20T16:34:27;11.48;;;8.30;;
40290;SDS011;26000;48.304;13.626;2023-02-20T16:36:57;7.78;;;4.55;;
40290;SDS011;26000;48.304;13.626;2023-02-20T16:39:23;7.53;;;4.22;;
40290;SDS011;26000;48.304;13.626;2023-02-20T16:41:49;4.70;;;3.30;;
40290;SDS011;26000;48.304;13.626;2023-02-20T16:47:10;3.17;;;2.45;;
40290;SDS011;26000;48.304;13.626;2023-02-20T16:49:37;4.40;;;2.50;;